QTR621 OPLA-OTHH
Flight info
| Callsign | QTR621 |
|---|---|
| Flight time | N/A |
| Altitude | 38000 |
| Route | VEREN G214 PG T385 TAPDO A454 VUSET N571 MENSA DCT EGTAG Q576 RORON M430 TOSNA |
| Aircraft | A35K/H-SDE2E3GHIJ3J4J5LM1ORWXY/LB1D1 |
Departure
| Time | 2026-05-09 20:53 |
|---|---|
| Airport | Allama Iqbal International Airport (OPLA) |
Arrival
| Time | N/A |
|---|---|
| Airport | Hamad International Airport (OTHH) |
| Time | Latitude | Longitude | Altitude | Speed | Heading |
|---|---|---|---|---|---|
| 2026-05-09 20:29 | 31.52103 | 74.40928 | 732 ft | 0 kts | 90° |
| 2026-05-09 20:44 | 31.52103 | 74.40924 | 730 ft | 3 kts | 90° |
| 2026-05-09 20:44 | 31.52104 | 74.40893 | 730 ft | 4 kts | 94° |
| 2026-05-09 20:45 | 31.52105 | 74.40867 | 726 ft | 4 kts | 75° |
| 2026-05-09 20:45 | 31.52093 | 74.40845 | 726 ft | 4 kts | 14° |
| 2026-05-09 20:45 | 31.52067 | 74.40844 | 727 ft | 4 kts | 354° |
| 2026-05-09 20:45 | 31.52054 | 74.40846 | 727 ft | 0 kts | 359° |
| 2026-05-09 20:48 | 31.52064 | 74.40846 | 727 ft | 4 kts | 0° |
| 2026-05-09 20:48 | 31.52103 | 74.40845 | 725 ft | 8 kts | 0° |
| 2026-05-09 20:48 | 31.52168 | 74.40846 | 728 ft | 11 kts | 0° |
| 2026-05-09 20:48 | 31.52259 | 74.40844 | 729 ft | 14 kts | 359° |
| 2026-05-09 20:49 | 31.52363 | 74.40837 | 729 ft | 15 kts | 344° |
| 2026-05-09 20:49 | 31.52404 | 74.40734 | 728 ft | 14 kts | 287° |
| 2026-05-09 20:49 | 31.52491 | 74.40680 | 729 ft | 16 kts | 359° |
| 2026-05-09 20:49 | 31.52607 | 74.40675 | 730 ft | 18 kts | 1° |
| 2026-05-09 20:50 | 31.52737 | 74.40675 | 729 ft | 19 kts | 358° |
| 2026-05-09 20:50 | 31.52878 | 74.40675 | 730 ft | 21 kts | 0° |
| 2026-05-09 20:50 | 31.53029 | 74.40682 | 731 ft | 22 kts | 1° |
| 2026-05-09 20:50 | 31.53188 | 74.40688 | 731 ft | 24 kts | 2° |
| 2026-05-09 20:51 | 31.53333 | 74.40689 | 731 ft | 16 kts | 360° |
| 2026-05-09 20:51 | 31.53389 | 74.40688 | 729 ft | 7 kts | 360° |
| 2026-05-09 20:51 | 31.53444 | 74.40688 | 730 ft | 9 kts | 359° |
| 2026-05-09 20:51 | 31.53516 | 74.40683 | 730 ft | 11 kts | 351° |
| 2026-05-09 20:52 | 31.53589 | 74.40636 | 732 ft | 13 kts | 319° |
| 2026-05-09 20:52 | 31.53646 | 74.40550 | 733 ft | 14 kts | 296° |
| 2026-05-09 20:52 | 31.53645 | 74.40493 | 732 ft | 3 kts | 223° |
| 2026-05-09 20:52 | 31.53598 | 74.40486 | 731 ft | 15 kts | 184° |
| 2026-05-09 20:53 | 31.53289 | 74.40477 | 731 ft | 80 kts | 181° |
| 2026-05-09 20:53 | 31.52508 | 74.40465 | 729 ft | 143 kts | 181° |
| 2026-05-09 20:53 | 31.51355 | 74.40447 | 982 ft | 175 kts | 180° |
| 2026-05-09 20:53 | 31.50150 | 74.40427 | 1714 ft | 176 kts | 180° |
| 2026-05-09 20:54 | 31.48829 | 74.40373 | 2073 ft | 202 kts | 181° |
| 2026-05-09 20:54 | 31.47336 | 74.40312 | 2331 ft | 228 kts | 181° |
| 2026-05-09 20:54 | 31.45655 | 74.40389 | 2553 ft | 254 kts | 171° |
| 2026-05-09 20:54 | 31.43897 | 74.40882 | 3066 ft | 266 kts | 172° |
| 2026-05-09 20:55 | 31.42081 | 74.40520 | 3734 ft | 270 kts | 208° |
| 2026-05-09 20:55 | 31.40634 | 74.39134 | 4513 ft | 270 kts | 226° |
| 2026-05-09 20:55 | 31.39464 | 74.37418 | 5304 ft | 270 kts | 240° |
| 2026-05-09 20:55 | 31.38545 | 74.35489 | 6100 ft | 272 kts | 244° |
| 2026-05-09 20:56 | 31.37683 | 74.33497 | 6819 ft | 277 kts | 246° |
| 2026-05-09 20:56 | 31.35965 | 74.29398 | 8325 ft | 284 kts | 247° |
| 2026-05-09 20:56 | 31.35098 | 74.27307 | 9098 ft | 287 kts | 247° |
| 2026-05-09 20:57 | 31.34233 | 74.25217 | 9841 ft | 291 kts | 248° |
| 2026-05-09 20:57 | 31.33322 | 74.23010 | 10312 ft | 306 kts | 248° |
| 2026-05-09 20:57 | 31.32381 | 74.20725 | 10595 ft | 325 kts | 247° |
| 2026-05-09 20:57 | 31.31368 | 74.18271 | 10873 ft | 344 kts | 247° |
| 2026-05-09 20:58 | 31.30300 | 74.15691 | 11141 ft | 360 kts | 247° |
| 2026-05-09 20:58 | 31.29184 | 74.12997 | 11432 ft | 374 kts | 246° |
| 2026-05-09 20:58 | 31.28036 | 74.10232 | 11900 ft | 381 kts | 246° |
| 2026-05-09 20:58 | 31.26872 | 74.07429 | 12453 ft | 385 kts | 246° |
| 2026-05-09 20:59 | 31.25684 | 74.04603 | 13012 ft | 390 kts | 245° |
| 2026-05-09 20:59 | 31.24249 | 74.01891 | 13580 ft | 396 kts | 236° |
| 2026-05-09 20:59 | 31.22565 | 73.99320 | 14075 ft | 401 kts | 233° |
| 2026-05-09 21:00 | 31.18898 | 73.94326 | 15062 ft | 409 kts | 231° |
| 2026-05-09 21:00 | 31.17004 | 73.91822 | 15603 ft | 412 kts | 231° |
| 2026-05-09 21:00 | 31.15109 | 73.89305 | 16104 ft | 415 kts | 231° |
| 2026-05-09 21:00 | 31.13203 | 73.86748 | 16628 ft | 419 kts | 231° |
| 2026-05-09 21:01 | 31.11291 | 73.84164 | 17144 ft | 422 kts | 231° |
| 2026-05-09 21:01 | 31.09389 | 73.81580 | 17668 ft | 426 kts | 231° |
| 2026-05-09 21:01 | 31.07459 | 73.78951 | 18176 ft | 429 kts | 231° |
| 2026-05-09 21:02 | 31.03549 | 73.73624 | 19126 ft | 435 kts | 231° |
| 2026-05-09 21:02 | 31.01573 | 73.70935 | 19598 ft | 438 kts | 231° |
| 2026-05-09 21:02 | 30.99579 | 73.68224 | 20081 ft | 441 kts | 231° |
| 2026-05-09 21:02 | 30.97577 | 73.65505 | 20602 ft | 444 kts | 231° |
| 2026-05-09 21:03 | 30.95556 | 73.62764 | 21133 ft | 445 kts | 231° |
| 2026-05-09 21:03 | 30.93532 | 73.60021 | 21702 ft | 448 kts | 230° |
| 2026-05-09 21:03 | 30.91494 | 73.57260 | 22219 ft | 451 kts | 230° |
| 2026-05-09 21:03 | 30.89459 | 73.54506 | 22753 ft | 454 kts | 230° |
| 2026-05-09 21:04 | 30.87394 | 73.51713 | 23270 ft | 458 kts | 230° |
| 2026-05-09 21:04 | 30.85309 | 73.48895 | 23744 ft | 461 kts | 230° |
| 2026-05-09 21:04 | 30.83206 | 73.46054 | 24190 ft | 465 kts | 231° |
| 2026-05-09 21:04 | 30.81086 | 73.43193 | 24662 ft | 468 kts | 231° |
| 2026-05-09 21:05 | 30.78941 | 73.40299 | 25139 ft | 472 kts | 231° |
| 2026-05-09 21:05 | 30.77516 | 73.38378 | 25465 ft | 474 kts | 231° |
| 2026-05-09 21:05 | 30.75354 | 73.35466 | 25965 ft | 478 kts | 231° |
| 2026-05-09 21:05 | 30.73171 | 73.32526 | 26449 ft | 482 kts | 232° |
| 2026-05-09 21:06 | 30.70248 | 73.28596 | 27119 ft | 486 kts | 232° |
| 2026-05-09 21:06 | 30.68029 | 73.25615 | 27623 ft | 490 kts | 233° |
| 2026-05-09 21:06 | 30.66553 | 73.23622 | 27908 ft | 492 kts | 233° |
| 2026-05-09 21:06 | 30.64297 | 73.20543 | 28385 ft | 496 kts | 234° |
| 2026-05-09 21:07 | 30.62094 | 73.17513 | 28847 ft | 499 kts | 234° |
| 2026-05-09 21:07 | 30.59840 | 73.14411 | 29280 ft | 503 kts | 234° |
| 2026-05-09 21:07 | 30.57574 | 73.11297 | 29727 ft | 507 kts | 234° |
| 2026-05-09 21:07 | 30.55283 | 73.08154 | 30109 ft | 510 kts | 234° |
| 2026-05-09 21:08 | 30.52983 | 73.05009 | 30501 ft | 512 kts | 234° |
| 2026-05-09 21:08 | 30.50671 | 73.01854 | 30903 ft | 513 kts | 234° |
| 2026-05-09 21:08 | 30.48363 | 72.98709 | 31445 ft | 511 kts | 235° |
| 2026-05-09 21:08 | 30.46065 | 72.95586 | 32076 ft | 507 kts | 235° |
| 2026-05-09 21:09 | 30.43793 | 72.92498 | 32700 ft | 502 kts | 235° |
| 2026-05-09 21:09 | 30.41536 | 72.89433 | 33294 ft | 499 kts | 236° |
| 2026-05-09 21:09 | 30.39315 | 72.86417 | 33805 ft | 497 kts | 236° |
| 2026-05-09 21:09 | 30.37078 | 72.83378 | 34249 ft | 494 kts | 236° |
| 2026-05-09 21:10 | 30.34845 | 72.80345 | 34630 ft | 493 kts | 236° |
| 2026-05-09 21:10 | 30.32624 | 72.77332 | 35035 ft | 491 kts | 236° |
| 2026-05-09 21:10 | 30.30408 | 72.74329 | 35498 ft | 489 kts | 236° |
| 2026-05-09 21:10 | 30.28206 | 72.71349 | 35937 ft | 486 kts | 236° |
| 2026-05-09 21:11 | 30.26014 | 72.68383 | 36350 ft | 484 kts | 236° |
| 2026-05-09 21:12 | 30.17342 | 72.56689 | 37715 ft | 477 kts | 236° |
| 2026-05-09 21:12 | 30.15159 | 72.53801 | 37762 ft | 477 kts | 235° |
| 2026-05-09 21:12 | 30.10777 | 72.48042 | 37752 ft | 477 kts | 235° |
| 2026-05-09 21:13 | 30.06393 | 72.42281 | 37747 ft | 477 kts | 235° |
| 2026-05-09 21:13 | 30.02005 | 72.36512 | 37740 ft | 477 kts | 235° |
| 2026-05-09 21:14 | 29.97625 | 72.30755 | 37741 ft | 477 kts | 235° |
| 2026-05-09 21:14 | 29.93236 | 72.24994 | 37724 ft | 477 kts | 235° |
| 2026-05-09 21:15 | 29.88856 | 72.19254 | 37733 ft | 476 kts | 235° |
| 2026-05-09 21:15 | 29.84504 | 72.13567 | 37733 ft | 476 kts | 235° |
| 2026-05-09 21:16 | 29.80121 | 72.07839 | 37732 ft | 476 kts | 235° |
| 2026-05-09 21:16 | 29.75738 | 72.02116 | 37732 ft | 476 kts | 235° |
| 2026-05-09 21:17 | 29.71353 | 71.96401 | 37730 ft | 476 kts | 235° |
| 2026-05-09 21:17 | 29.66988 | 71.90719 | 37713 ft | 477 kts | 234° |
| 2026-05-09 21:18 | 29.62592 | 71.85009 | 37729 ft | 476 kts | 234° |
| 2026-05-09 21:18 | 29.58195 | 71.79307 | 37726 ft | 476 kts | 234° |
| 2026-05-09 21:19 | 29.49411 | 71.67934 | 37728 ft | 476 kts | 234° |
| 2026-05-09 21:20 | 29.45013 | 71.62253 | 37727 ft | 476 kts | 234° |
| 2026-05-09 21:20 | 29.40610 | 71.56574 | 37727 ft | 476 kts | 234° |
| 2026-05-09 21:21 | 29.36207 | 71.50902 | 37714 ft | 475 kts | 234° |
| 2026-05-09 21:21 | 29.31806 | 71.45241 | 37724 ft | 476 kts | 234° |
| 2026-05-09 21:22 | 29.27424 | 71.39622 | 37722 ft | 476 kts | 233° |
| 2026-05-09 21:22 | 29.22950 | 71.34013 | 37722 ft | 477 kts | 233° |
| 2026-05-09 21:23 | 29.18440 | 71.28393 | 37717 ft | 484 kts | 233° |
| 2026-05-09 21:23 | 29.13845 | 71.22653 | 37718 ft | 491 kts | 233° |
| 2026-05-09 21:24 | 29.09219 | 71.16882 | 37719 ft | 492 kts | 233° |
| 2026-05-09 21:24 | 29.04599 | 71.11126 | 37719 ft | 492 kts | 233° |
| 2026-05-09 21:25 | 28.99972 | 71.05365 | 37718 ft | 492 kts | 233° |
| 2026-05-09 21:25 | 28.95369 | 70.99640 | 37715 ft | 493 kts | 233° |
| 2026-05-09 21:26 | 28.90724 | 70.93872 | 37713 ft | 493 kts | 233° |
| 2026-05-09 21:26 | 28.86078 | 70.88111 | 37713 ft | 493 kts | 233° |
| 2026-05-09 21:27 | 28.81436 | 70.82364 | 37711 ft | 492 kts | 232° |
| 2026-05-09 21:27 | 28.76797 | 70.76628 | 37711 ft | 492 kts | 232° |
| 2026-05-09 21:28 | 28.72150 | 70.70890 | 37710 ft | 492 kts | 232° |
| 2026-05-09 21:28 | 28.67504 | 70.65161 | 37707 ft | 492 kts | 232° |
| 2026-05-09 21:29 | 28.62849 | 70.59429 | 37710 ft | 492 kts | 232° |
| 2026-05-09 21:29 | 28.58200 | 70.53713 | 37706 ft | 492 kts | 232° |
| 2026-05-09 21:30 | 28.53576 | 70.48036 | 37713 ft | 492 kts | 232° |
| 2026-05-09 21:30 | 28.48917 | 70.42324 | 37711 ft | 492 kts | 232° |
| 2026-05-09 21:31 | 28.44256 | 70.36617 | 37708 ft | 492 kts | 232° |
| 2026-05-09 21:31 | 28.39603 | 70.30928 | 37708 ft | 492 kts | 232° |
| 2026-05-09 21:32 | 28.35634 | 70.24726 | 37711 ft | 482 kts | 246° |
| 2026-05-09 21:32 | 28.32575 | 70.17967 | 37706 ft | 481 kts | 248° |
| 2026-05-09 21:33 | 28.29688 | 70.11172 | 37706 ft | 481 kts | 248° |
| 2026-05-09 21:33 | 28.26785 | 70.04321 | 37706 ft | 481 kts | 248° |
| 2026-05-09 21:34 | 28.23858 | 69.97483 | 37705 ft | 482 kts | 248° |
| 2026-05-09 21:34 | 28.20920 | 69.90662 | 37702 ft | 482 kts | 248° |
| 2026-05-09 21:35 | 28.17976 | 69.83842 | 37697 ft | 481 kts | 248° |
| 2026-05-09 21:35 | 28.15029 | 69.77027 | 37700 ft | 481 kts | 248° |
| 2026-05-09 21:36 | 28.12083 | 69.70226 | 37700 ft | 481 kts | 248° |
| 2026-05-09 21:36 | 28.09132 | 69.63421 | 37697 ft | 481 kts | 248° |
| 2026-05-09 21:37 | 28.06194 | 69.56658 | 37697 ft | 481 kts | 248° |
| 2026-05-09 21:37 | 28.03234 | 69.49856 | 37692 ft | 480 kts | 247° |
| 2026-05-09 21:38 | 28.00278 | 69.43075 | 37694 ft | 480 kts | 247° |
| 2026-05-09 21:38 | 27.97317 | 69.36296 | 37694 ft | 480 kts | 247° |
| 2026-05-09 21:39 | 27.94361 | 69.29537 | 37694 ft | 480 kts | 247° |
| 2026-05-09 21:39 | 27.91412 | 69.22805 | 37685 ft | 480 kts | 247° |
| 2026-05-09 21:40 | 27.88429 | 69.16037 | 37693 ft | 479 kts | 247° |
| 2026-05-09 21:40 | 27.85442 | 69.09305 | 37695 ft | 479 kts | 246° |
| 2026-05-09 21:41 | 27.82454 | 69.02578 | 37694 ft | 479 kts | 246° |
| 2026-05-09 21:41 | 27.79483 | 68.95896 | 37694 ft | 479 kts | 246° |
| 2026-05-09 21:42 | 27.76491 | 68.89173 | 37694 ft | 479 kts | 246° |
| 2026-05-09 21:42 | 27.73527 | 68.82449 | 37690 ft | 477 kts | 249° |
| 2026-05-09 21:43 | 27.71564 | 68.75358 | 37695 ft | 472 kts | 260° |
| 2026-05-09 21:43 | 27.70291 | 68.68085 | 37690 ft | 472 kts | 262° |
| 2026-05-09 21:44 | 27.69129 | 68.60792 | 37692 ft | 472 kts | 262° |
| 2026-05-09 21:44 | 27.67962 | 68.53510 | 37686 ft | 472 kts | 262° |
| 2026-05-09 21:45 | 27.66773 | 68.46225 | 37684 ft | 472 kts | 261° |
| 2026-05-09 21:45 | 27.65570 | 68.38938 | 37683 ft | 472 kts | 261° |
| 2026-05-09 21:46 | 27.64368 | 68.31695 | 37678 ft | 472 kts | 261° |
| 2026-05-09 21:46 | 27.63158 | 68.24412 | 37678 ft | 472 kts | 261° |
| 2026-05-09 21:47 | 27.61944 | 68.17133 | 37675 ft | 472 kts | 261° |
| 2026-05-09 21:47 | 27.60725 | 68.09849 | 37690 ft | 473 kts | 261° |
| 2026-05-09 21:48 | 27.59503 | 68.02564 | 37675 ft | 473 kts | 261° |
| 2026-05-09 21:48 | 27.58283 | 67.95325 | 37676 ft | 473 kts | 261° |
| 2026-05-09 21:49 | 27.57054 | 67.88048 | 37671 ft | 473 kts | 261° |
| 2026-05-09 21:49 | 27.55820 | 67.80768 | 37672 ft | 472 kts | 261° |
| 2026-05-09 21:50 | 27.54582 | 67.73492 | 37675 ft | 473 kts | 261° |
| 2026-05-09 21:51 | 27.52717 | 67.62572 | 37681 ft | 473 kts | 261° |
| 2026-05-09 21:51 | 27.51470 | 67.55301 | 37679 ft | 473 kts | 261° |
| 2026-05-09 21:52 | 27.50229 | 67.48085 | 37718 ft | 472 kts | 261° |
| 2026-05-09 21:52 | 27.48973 | 67.40813 | 37743 ft | 472 kts | 261° |
| 2026-05-09 21:53 | 27.47715 | 67.33551 | 37747 ft | 472 kts | 261° |
| 2026-05-09 21:53 | 27.46454 | 67.26292 | 37781 ft | 472 kts | 261° |
| 2026-05-09 21:54 | 27.44836 | 67.16618 | 37786 ft | 472 kts | 262° |
| 2026-05-09 21:54 | 27.43580 | 67.08141 | 37813 ft | 473 kts | 262° |
| 2026-05-09 21:55 | 27.42663 | 67.02026 | 37842 ft | 472 kts | 261° |
| 2026-05-09 21:55 | 27.41547 | 66.94741 | 37849 ft | 473 kts | 262° |
| 2026-05-09 21:56 | 27.40434 | 66.87440 | 37871 ft | 472 kts | 261° |
| 2026-05-09 21:56 | 27.39307 | 66.80155 | 37872 ft | 473 kts | 261° |
| 2026-05-09 21:57 | 27.38179 | 66.72907 | 37887 ft | 473 kts | 261° |
| 2026-05-09 21:57 | 27.37041 | 66.65610 | 37886 ft | 473 kts | 261° |
| 2026-05-09 21:58 | 27.35897 | 66.58305 | 37907 ft | 474 kts | 261° |
| 2026-05-09 21:58 | 27.34753 | 66.51003 | 37895 ft | 473 kts | 261° |
| 2026-05-09 21:59 | 27.33606 | 66.43713 | 37896 ft | 473 kts | 261° |
| 2026-05-09 21:59 | 27.32454 | 66.36429 | 37900 ft | 473 kts | 261° |
| 2026-05-09 22:00 | 27.31304 | 66.29182 | 37903 ft | 473 kts | 261° |
| 2026-05-09 22:00 | 27.30147 | 66.21909 | 37913 ft | 473 kts | 261° |
| 2026-05-09 22:01 | 27.28984 | 66.14623 | 37900 ft | 473 kts | 261° |
| 2026-05-09 22:01 | 27.27816 | 66.07339 | 37902 ft | 473 kts | 261° |
| 2026-05-09 22:02 | 27.26648 | 66.00054 | 37905 ft | 473 kts | 261° |
| 2026-05-09 22:02 | 27.25473 | 65.92780 | 37904 ft | 473 kts | 261° |
| 2026-05-09 22:03 | 27.24293 | 65.85512 | 37911 ft | 473 kts | 261° |
| 2026-05-09 22:03 | 27.23115 | 65.78277 | 37917 ft | 473 kts | 261° |
| 2026-05-09 22:04 | 27.21929 | 65.71010 | 37914 ft | 473 kts | 261° |
| 2026-05-09 22:04 | 27.20739 | 65.63739 | 37919 ft | 473 kts | 261° |
| 2026-05-09 22:05 | 27.19544 | 65.56461 | 37921 ft | 473 kts | 260° |
| 2026-05-09 22:05 | 27.18346 | 65.49192 | 37917 ft | 473 kts | 260° |
| 2026-05-09 22:06 | 27.17144 | 65.41922 | 37918 ft | 474 kts | 260° |
| 2026-05-09 22:06 | 27.15937 | 65.34646 | 37911 ft | 473 kts | 260° |
| 2026-05-09 22:07 | 27.14727 | 65.27376 | 37911 ft | 474 kts | 260° |
| 2026-05-09 22:07 | 27.13519 | 65.20142 | 37907 ft | 474 kts | 260° |
| 2026-05-09 22:08 | 27.12300 | 65.12865 | 37908 ft | 474 kts | 260° |
| 2026-05-09 22:08 | 27.11075 | 65.05579 | 37908 ft | 474 kts | 260° |
| 2026-05-09 22:09 | 27.09846 | 64.98291 | 37910 ft | 474 kts | 260° |
| 2026-05-09 22:09 | 27.08616 | 64.91020 | 37909 ft | 474 kts | 260° |
| 2026-05-09 22:10 | 27.07380 | 64.83742 | 37909 ft | 474 kts | 260° |
| 2026-05-09 22:10 | 27.06150 | 64.76522 | 37907 ft | 474 kts | 260° |
| 2026-05-09 22:11 | 27.04901 | 64.69208 | 37905 ft | 474 kts | 259° |
| 2026-05-09 22:11 | 27.03663 | 64.61990 | 37900 ft | 474 kts | 259° |
| 2026-05-09 22:12 | 27.02413 | 64.54722 | 37903 ft | 474 kts | 259° |
| 2026-05-09 22:12 | 27.01161 | 64.47463 | 37899 ft | 474 kts | 259° |
| 2026-05-09 22:13 | 26.99905 | 64.40203 | 37898 ft | 474 kts | 259° |
| 2026-05-09 22:13 | 26.98644 | 64.32941 | 37885 ft | 474 kts | 259° |
| 2026-05-09 22:14 | 26.97381 | 64.25689 | 37887 ft | 474 kts | 259° |
| 2026-05-09 22:14 | 26.95967 | 64.18479 | 37883 ft | 474 kts | 253° |
| 2026-05-09 22:15 | 26.93130 | 64.11819 | 37881 ft | 477 kts | 237° |
| 2026-05-09 22:15 | 26.88763 | 64.06175 | 37877 ft | 481 kts | 229° |
| 2026-05-09 22:16 | 26.84036 | 64.00860 | 37876 ft | 481 kts | 227° |
| 2026-05-09 22:16 | 26.79308 | 63.95625 | 37869 ft | 480 kts | 227° |
| 2026-05-09 22:17 | 26.74571 | 63.90334 | 37869 ft | 480 kts | 227° |
| 2026-05-09 22:17 | 26.69863 | 63.85045 | 37857 ft | 480 kts | 227° |
| 2026-05-09 22:18 | 26.65147 | 63.79743 | 37857 ft | 481 kts | 227° |
| 2026-05-09 22:18 | 26.60422 | 63.74441 | 37852 ft | 481 kts | 227° |
| 2026-05-09 22:19 | 26.55696 | 63.69144 | 37850 ft | 481 kts | 227° |
| 2026-05-09 22:19 | 26.51001 | 63.63891 | 37846 ft | 481 kts | 227° |
| 2026-05-09 22:20 | 26.46271 | 63.58606 | 37852 ft | 481 kts | 227° |
| 2026-05-09 22:20 | 26.41537 | 63.53321 | 37854 ft | 481 kts | 227° |
| 2026-05-09 22:21 | 26.36806 | 63.48046 | 37850 ft | 481 kts | 227° |
| 2026-05-09 22:21 | 26.32070 | 63.42773 | 37843 ft | 481 kts | 227° |
| 2026-05-09 22:22 | 26.27328 | 63.37498 | 37849 ft | 481 kts | 227° |
| 2026-05-09 22:22 | 26.22586 | 63.32230 | 37835 ft | 482 kts | 227° |
| 2026-05-09 22:23 | 26.17840 | 63.26965 | 37836 ft | 482 kts | 227° |
| 2026-05-09 22:23 | 26.13091 | 63.21703 | 37832 ft | 482 kts | 227° |
| 2026-05-09 22:24 | 26.08370 | 63.16477 | 37827 ft | 482 kts | 227° |
| 2026-05-09 22:24 | 26.03612 | 63.11218 | 37818 ft | 481 kts | 227° |
| 2026-05-09 22:25 | 25.98860 | 63.05974 | 37826 ft | 481 kts | 227° |
| 2026-05-09 22:25 | 25.94111 | 63.00722 | 37811 ft | 481 kts | 227° |
| 2026-05-09 22:26 | 25.89374 | 62.95473 | 37813 ft | 481 kts | 227° |
| 2026-05-09 22:26 | 25.84658 | 62.90257 | 37813 ft | 481 kts | 227° |
| 2026-05-09 22:27 | 25.79911 | 62.85018 | 37802 ft | 481 kts | 227° |
| 2026-05-09 22:27 | 25.75158 | 62.79779 | 37804 ft | 480 kts | 227° |
| 2026-05-09 22:28 | 25.70421 | 62.74566 | 37802 ft | 479 kts | 227° |
| 2026-05-09 22:28 | 25.65684 | 62.69357 | 37803 ft | 479 kts | 227° |
| 2026-05-09 22:29 | 25.60945 | 62.64152 | 37796 ft | 479 kts | 227° |
| 2026-05-09 22:29 | 25.56203 | 62.58951 | 37799 ft | 479 kts | 227° |
| 2026-05-09 22:30 | 25.51459 | 62.53753 | 37802 ft | 479 kts | 227° |
| 2026-05-09 22:30 | 25.46747 | 62.48596 | 37801 ft | 479 kts | 226° |
| 2026-05-09 22:31 | 25.42009 | 62.43417 | 37799 ft | 479 kts | 226° |
| 2026-05-09 22:31 | 25.37262 | 62.38234 | 37794 ft | 479 kts | 226° |
| 2026-05-09 22:32 | 25.32518 | 62.33061 | 37798 ft | 479 kts | 226° |
| 2026-05-09 22:32 | 25.27776 | 62.27895 | 37790 ft | 479 kts | 226° |
| 2026-05-09 22:33 | 25.23018 | 62.22718 | 37796 ft | 480 kts | 226° |
| 2026-05-09 22:33 | 25.18257 | 62.17545 | 37796 ft | 480 kts | 226° |
| 2026-05-09 22:34 | 25.13495 | 62.12375 | 37793 ft | 480 kts | 226° |
| 2026-05-09 22:34 | 25.08725 | 62.07204 | 37788 ft | 480 kts | 226° |
| 2026-05-09 22:35 | 25.03964 | 62.02048 | 37788 ft | 480 kts | 226° |
| 2026-05-09 22:35 | 24.99200 | 61.96894 | 37788 ft | 480 kts | 226° |
| 2026-05-09 22:36 | 24.94461 | 61.91774 | 37787 ft | 480 kts | 226° |
| 2026-05-09 22:36 | 24.89703 | 61.86641 | 37783 ft | 478 kts | 226° |
| 2026-05-09 22:37 | 24.84949 | 61.81515 | 37786 ft | 478 kts | 226° |
| 2026-05-09 22:37 | 24.80186 | 61.76385 | 37787 ft | 478 kts | 226° |
| 2026-05-09 22:38 | 24.75429 | 61.71267 | 37786 ft | 478 kts | 226° |
| 2026-05-09 22:39 | 24.68281 | 61.63590 | 37783 ft | 478 kts | 226° |
| 2026-05-09 22:39 | 24.64316 | 61.59337 | 37782 ft | 478 kts | 226° |
| 2026-05-09 22:40 | 24.57169 | 61.51681 | 37781 ft | 478 kts | 226° |
| 2026-05-09 22:40 | 24.51624 | 61.45749 | 37779 ft | 479 kts | 226° |
| 2026-05-09 22:41 | 24.47647 | 61.41501 | 37779 ft | 480 kts | 226° |
| 2026-05-09 22:41 | 24.42990 | 61.36263 | 37779 ft | 478 kts | 232° |
| 2026-05-09 22:42 | 24.39600 | 61.30037 | 37778 ft | 475 kts | 249° |
| 2026-05-09 22:42 | 24.37773 | 61.23079 | 37777 ft | 475 kts | 256° |
| 2026-05-09 22:43 | 24.36329 | 61.16048 | 37774 ft | 475 kts | 257° |
| 2026-05-09 22:43 | 24.34908 | 61.08958 | 37773 ft | 475 kts | 257° |
| 2026-05-09 22:44 | 24.33454 | 61.01887 | 37778 ft | 475 kts | 257° |
| 2026-05-09 22:44 | 24.31977 | 60.94825 | 37775 ft | 475 kts | 256° |
| 2026-05-09 22:45 | 24.30491 | 60.87762 | 37773 ft | 475 kts | 256° |
| 2026-05-09 22:45 | 24.29001 | 60.80693 | 37771 ft | 475 kts | 256° |
| 2026-05-09 22:46 | 24.27510 | 60.73631 | 37773 ft | 475 kts | 256° |
| 2026-05-09 22:47 | 24.25270 | 60.63051 | 37774 ft | 475 kts | 256° |
| 2026-05-09 22:47 | 24.23781 | 60.56041 | 37774 ft | 475 kts | 256° |
| 2026-05-09 22:48 | 24.22279 | 60.48983 | 37773 ft | 475 kts | 256° |
| 2026-05-09 22:48 | 24.20774 | 60.41931 | 37775 ft | 475 kts | 256° |
| 2026-05-09 22:49 | 24.19267 | 60.34884 | 37773 ft | 475 kts | 256° |
| 2026-05-09 22:49 | 24.17757 | 60.27843 | 37773 ft | 475 kts | 256° |
| 2026-05-09 22:50 | 24.16243 | 60.20797 | 37774 ft | 475 kts | 256° |
| 2026-05-09 22:50 | 24.14736 | 60.13803 | 37772 ft | 475 kts | 256° |
| 2026-05-09 22:51 | 24.13216 | 60.06763 | 37775 ft | 475 kts | 256° |
| 2026-05-09 22:51 | 24.11691 | 59.99717 | 37782 ft | 475 kts | 256° |
| 2026-05-09 22:52 | 24.10166 | 59.92688 | 37777 ft | 475 kts | 256° |
| 2026-05-09 22:52 | 24.08636 | 59.85652 | 37778 ft | 475 kts | 256° |
| 2026-05-09 22:53 | 24.07102 | 59.78614 | 37777 ft | 475 kts | 256° |
| 2026-05-09 22:53 | 24.05564 | 59.71576 | 37777 ft | 475 kts | 256° |
| 2026-05-09 22:54 | 24.04024 | 59.64542 | 37779 ft | 475 kts | 256° |
| 2026-05-09 22:54 | 24.02481 | 59.57511 | 37778 ft | 475 kts | 256° |
| 2026-05-09 22:55 | 24.00935 | 59.50482 | 37781 ft | 475 kts | 256° |
| 2026-05-09 22:55 | 23.99394 | 59.43496 | 37774 ft | 475 kts | 255° |
| 2026-05-09 22:56 | 23.97840 | 59.36466 | 37775 ft | 475 kts | 255° |
| 2026-05-09 22:56 | 23.96285 | 59.29447 | 37772 ft | 475 kts | 255° |
| 2026-05-09 22:57 | 23.94730 | 59.22425 | 37772 ft | 475 kts | 256° |
| 2026-05-09 22:57 | 23.94036 | 59.15251 | 37770 ft | 478 kts | 270° |
| 2026-05-09 22:58 | 23.95274 | 59.08094 | 37768 ft | 484 kts | 287° |
| 2026-05-09 22:58 | 23.97949 | 59.01314 | 37766 ft | 487 kts | 292° |
| 2026-05-09 22:59 | 24.00847 | 58.94657 | 37765 ft | 487 kts | 292° |
| 2026-05-09 22:59 | 24.03761 | 58.87964 | 37770 ft | 486 kts | 292° |
| 2026-05-09 23:00 | 24.06633 | 58.81271 | 37767 ft | 486 kts | 292° |
| 2026-05-09 23:00 | 24.09489 | 58.74560 | 37772 ft | 486 kts | 291° |
| 2026-05-09 23:01 | 24.12339 | 58.67846 | 37770 ft | 486 kts | 291° |
| 2026-05-09 23:01 | 24.15177 | 58.61170 | 37769 ft | 486 kts | 291° |
| 2026-05-09 23:02 | 24.18026 | 58.54448 | 37772 ft | 486 kts | 291° |
| 2026-05-09 23:02 | 24.20865 | 58.47738 | 37775 ft | 485 kts | 291° |
| 2026-05-09 23:03 | 24.23703 | 58.41026 | 37765 ft | 485 kts | 291° |
| 2026-05-09 23:03 | 24.26537 | 58.34313 | 37767 ft | 485 kts | 291° |
| 2026-05-09 23:04 | 24.29351 | 58.27638 | 37769 ft | 485 kts | 291° |
| 2026-05-09 23:04 | 24.32181 | 58.20916 | 37769 ft | 485 kts | 291° |
| 2026-05-09 23:05 | 24.35003 | 58.14200 | 37768 ft | 485 kts | 291° |
| 2026-05-09 23:05 | 24.37825 | 58.07478 | 37767 ft | 484 kts | 291° |
| 2026-05-09 23:06 | 24.40637 | 58.00767 | 37771 ft | 484 kts | 291° |
| 2026-05-09 23:06 | 24.43447 | 57.94052 | 37774 ft | 484 kts | 291° |
| 2026-05-09 23:07 | 24.46254 | 57.87333 | 37774 ft | 484 kts | 291° |
| 2026-05-09 23:07 | 24.49057 | 57.80614 | 37771 ft | 484 kts | 291° |
| 2026-05-09 23:08 | 24.51792 | 57.73907 | 37771 ft | 483 kts | 290° |
| 2026-05-09 23:08 | 24.54359 | 57.67073 | 37776 ft | 483 kts | 289° |
| 2026-05-09 23:09 | 24.56900 | 57.60237 | 37770 ft | 483 kts | 289° |
| 2026-05-09 23:09 | 24.59462 | 57.53421 | 37776 ft | 483 kts | 289° |
| 2026-05-09 23:10 | 24.62043 | 57.46591 | 37778 ft | 483 kts | 289° |